Lemon Cove, CA

7:41 PM PDT on August 21, 2014 (GMT -0700)
HADS LAKE KAWEAH WEATHER STATION NEAR CA US USARMY-COE | Change Station
CLOSE
Current Station
Personal Weather Station
Location: Lemon Cove, CA
Elevation: 540 ft
Nearby Weather Stations

Elev 540 ft 36.42 °N, 119.01 °W | Updated 56 minutes ago

Clear
Clear
94 °F
Feels Like 91 °F
N
5
Wind Variable Wind from WSW
Gusts 0.0 mph

Today
High -- | Low -- °F
--% Chance of Precip.
Yesterday
High -- | Low -- °F
Precip. -- in
6:18 AM 7:38 PM
Waning Crescent, 11% visible
Pressure 29.81 in
Visibility 10.0 miles
Clouds Clear
Heat Index 91 °F
Dew Point 48 °F
Humidity 21%
Rainfall 0.00 in
Snow Depth Not available.
UV 0 out of 12
Pollen 8.30 out of 12
PM2.5 Good
Flu Activity Not available.
METAR KVIS 220235Z AUTO 30005KT 10SM CLR 31/15 A2981 RMK AO1

More Conditions Fewer Conditions

Pressure 29.81 in
Visibility 10.0 miles
Clouds Clear
Heat Index 91 °F
Dew Point 48 °F
Humidity 21%
Rainfall 0.00 in
Snow Depth Not available.
UV 0 out of 12
Pollen 8.30 out of 12
PM2.5 Good
Flu Activity Not available.
METAR KVIS 220235Z AUTO 30005KT 10SM CLR 31/15 A2981 RMK AO1

More Conditions Fewer Conditions

10-Day Weather Forecast

Almanac

Astronomy

Aug. 21, 2014 Rise Set
Actual Time 6:18 AM PDT 7:38 PM PDT
Civil Twilight 5:51 AM PDT 8:05 PM PDT
Nautical Twilight 5:19 AM PDT 8:37 PM PDT
Astronomical Twilight 4:45 AM PDT 9:11 PM PDT
Moon 2:56 AM PDT (8/21) 5:08 PM PDT (8/21)
Length of Visible Light 14h 14m
Length of Day
13h 20m
Tomorrow will be 2m 6s shorter.
Waning Crescent, 11% of the Moon is Illuminated
Today
Waning Crescent
Aug 25
New
Sep 2
First Quarter
Sep 8
Full
Sep 15
Last Quarter

Today's Extremes

State Highs State Lows

Community

WunderPhotos

Upload Photos

1,746,109 photos uploaded!

WunderBlogs® & News

Nearby

Air Quality

  Air Quality AQ Index Pollutant
Yesterday Good
OZONE
Yesterday Good
PM2.5
Current Good
PM2.5
Thursday Moderate
PM2.5
Friday Moderate
OZONE
Saturday Moderate
OZONE
Sunday Moderate
OZONE
Monday Moderate
OZONE
Tuesday Moderate
OZONE

Snow Depth

Station Depth Elevation
Leavitt Meadows 1 in 7200 ft
Summit Meadow 0 in 9122 ft
Adin Mountain 0 in 6200 ft
Cedar Pass 0 in 7100 ft

Earthquake Activity

City Distance Mag. Time & Date
King City, California 103 miles 2.7 10:26 PM PDT
2014-08-15
Kettleman City, California 62 miles 2.9 11:32 PM PDT
2014-08-14
King City, California 103 miles 2.9 8:01 PM PDT
2014-08-14
Minimum magnitude displayed is 2.5.

Coastal Water Temperatures

Place Temperature
No Stations Reporting

Nearby Weather Stations